sensor_id;sensor_type;location;lat;lon;timestamp;pressure;altitude;pressure_sealevel;temperature;humidity
39449;BME280;25151;45.566;9.382;2023-02-12T00:02:08;101320.13;;;19.79;46.94
39449;BME280;25151;45.566;9.382;2023-02-12T00:05:09;101325.72;;;19.79;47.02
39449;BME280;25151;45.566;9.382;2023-02-12T00:08:10;101326.13;;;19.77;46.95
39449;BME280;25151;45.566;9.382;2023-02-12T00:11:14;101324.56;;;19.76;47.00
39449;BME280;25151;45.566;9.382;2023-02-12T00:14:15;101338.56;;;19.73;47.09
39449;BME280;25151;45.566;9.382;2023-02-12T00:17:16;101340.56;;;19.72;46.93
39449;BME280;25151;45.566;9.382;2023-02-12T00:20:18;101339.75;;;19.72;47.08
39449;BME280;25151;45.566;9.382;2023-02-12T00:23:19;101324.94;;;19.71;47.04
39449;BME280;25151;45.566;9.382;2023-02-12T00:26:21;101329.38;;;19.69;47.20
39449;BME280;25151;45.566;9.382;2023-02-12T00:29:22;101323.38;;;19.67;47.07
39449;BME280;25151;45.566;9.382;2023-02-12T00:32:24;101319.00;;;19.65;47.17
39449;BME280;25151;45.566;9.382;2023-02-12T00:35:26;101324.59;;;19.65;47.20
39449;BME280;25151;45.566;9.382;2023-02-12T00:38:27;101323.00;;;19.64;47.18
39449;BME280;25151;45.566;9.382;2023-02-12T00:41:28;101328.19;;;19.62;47.30
39449;BME280;25151;45.566;9.382;2023-02-12T00:44:29;101322.59;;;19.62;47.23
39449;BME280;25151;45.566;9.382;2023-02-12T00:47:30;101317.38;;;19.61;47.31
39449;BME280;25151;45.566;9.382;2023-02-12T00:50:31;101308.59;;;19.59;47.04
39449;BME280;25151;45.566;9.382;2023-02-12T00:53:38;101310.59;;;19.58;47.30
39449;BME280;25151;45.566;9.382;2023-02-12T00:56:39;101311.81;;;19.57;47.50
39449;BME280;25151;45.566;9.382;2023-02-12T00:59:39;101319.78;;;19.55;47.21
39449;BME280;25151;45.566;9.382;2023-02-12T01:02:43;101311.41;;;19.55;47.31
39449;BME280;25151;45.566;9.382;2023-02-12T01:05:44;101315.41;;;19.54;47.31
39449;BME280;25151;45.566;9.382;2023-02-12T01:08:44;101307.03;;;19.54;47.23
39449;BME280;25151;45.566;9.382;2023-02-12T01:11:45;101319.81;;;19.52;47.38
39449;BME280;25151;45.566;9.382;2023-02-12T01:14:46;101320.22;;;19.50;47.26
39449;BME280;25151;45.566;9.382;2023-02-12T01:17:47;101317.44;;;19.50;47.32
39449;BME280;25151;45.566;9.382;2023-02-12T01:20:51;101317.84;;;19.49;47.50
39449;BME280;25151;45.566;9.382;2023-02-12T01:23:52;101319.84;;;19.48;47.62
39449;BME280;25151;45.566;9.382;2023-02-12T01:26:53;101312.63;;;19.47;47.41
39449;BME280;25151;45.566;9.382;2023-02-12T01:29:53;101318.66;;;19.46;47.52
39449;BME280;25151;45.566;9.382;2023-02-12T01:32:54;101320.66;;;19.45;47.46
39449;BME280;25151;45.566;9.382;2023-02-12T01:35:55;101319.06;;;19.44;47.52
39449;BME280;25151;45.566;9.382;2023-02-12T01:38:57;101323.03;;;19.43;47.66
39449;BME280;25151;45.566;9.382;2023-02-12T01:41:58;101317.44;;;19.43;47.70
39449;BME280;25151;45.566;9.382;2023-02-12T01:48:16;101308.69;;;19.41;47.53
39449;BME280;25151;45.566;9.382;2023-02-12T01:51:19;101307.06;;;19.40;47.50
39449;BME280;25151;45.566;9.382;2023-02-12T01:54:23;101305.47;;;19.39;47.59
39449;BME280;25151;45.566;9.382;2023-02-12T01:57:27;101305.91;;;19.37;47.78
39449;BME280;25151;45.566;9.382;2023-02-12T02:00:30;101302.31;;;19.37;47.71
39449;BME280;25151;45.566;9.382;2023-02-12T02:03:36;101293.91;;;19.37;47.68
39449;BME280;25151;45.566;9.382;2023-02-12T02:07:03;101282.31;;;19.35;47.60
39449;BME280;25151;45.566;9.382;2023-02-12T02:10:05;101280.72;;;19.34;47.60
39449;BME280;25151;45.566;9.382;2023-02-12T02:13:06;101281.53;;;19.31;47.69
39449;BME280;25151;45.566;9.382;2023-02-12T02:16:27;101291.50;;;19.32;47.69
39449;BME280;25151;45.566;9.382;2023-02-12T02:20:01;101295.94;;;19.33;47.71
39449;BME280;25151;45.566;9.382;2023-02-12T02:23:38;101289.94;;;19.31;47.73
39449;BME280;25151;45.566;9.382;2023-02-12T02:33:35;101269.97;;;19.29;47.79
39449;BME280;25151;45.566;9.382;2023-02-12T02:40:12;101260.81;;;19.25;47.93
39449;BME280;25151;45.566;9.382;2023-02-12T02:43:18;101262.38;;;19.26;47.88
39449;BME280;25151;45.566;9.382;2023-02-12T02:46:29;101258.00;;;19.25;47.68
39449;BME280;25151;45.566;9.382;2023-02-12T02:49:44;101255.22;;;19.25;47.88
39449;BME280;25151;45.566;9.382;2023-02-12T02:53:01;101248.00;;;19.24;47.88
39449;BME280;25151;45.566;9.382;2023-02-12T02:56:08;101251.22;;;19.22;47.84
39449;BME280;25151;45.566;9.382;2023-02-12T02:59:16;101237.66;;;19.21;47.96
39449;BME280;25151;45.566;9.382;2023-02-12T03:02:27;101226.47;;;19.21;47.80
39449;BME280;25151;45.566;9.382;2023-02-12T03:05:37;101229.66;;;19.19;48.03
39449;BME280;25151;45.566;9.382;2023-02-12T03:08:46;101225.25;;;19.18;47.88
39449;BME280;25151;45.566;9.382;2023-02-12T03:11:51;101231.66;;;19.19;47.95
39449;BME280;25151;45.566;9.382;2023-02-12T03:15:18;101228.06;;;19.18;47.78
39449;BME280;25151;45.566;9.382;2023-02-12T03:18:27;101231.28;;;19.16;47.97
39449;BME280;25151;45.566;9.382;2023-02-12T03:21:35;101240.84;;;19.15;47.97
39449;BME280;25151;45.566;9.382;2023-02-12T03:24:45;101245.25;;;19.16;47.98
39449;BME280;25151;45.566;9.382;2023-02-12T03:27:58;101241.25;;;19.14;48.08
39449;BME280;25151;45.566;9.382;2023-02-12T03:31:23;101238.88;;;19.12;47.90
39449;BME280;25151;45.566;9.382;2023-02-12T03:34:45;101241.66;;;19.12;48.03
39449;BME280;25151;45.566;9.382;2023-02-12T03:38:11;101237.25;;;19.11;47.85
39449;BME280;25151;45.566;9.382;2023-02-12T03:41:31;101230.09;;;19.10;47.97
39449;BME280;25151;45.566;9.382;2023-02-12T03:45:07;101244.06;;;19.10;47.97
39449;BME280;25151;45.566;9.382;2023-02-12T03:51:38;101236.09;;;19.09;48.03
39449;BME280;25151;45.566;9.382;2023-02-12T03:54:40;101236.09;;;19.09;48.03
39449;BME280;25151;45.566;9.382;2023-02-12T03:58:00;101245.66;;;19.08;48.08
39449;BME280;25151;45.566;9.382;2023-02-12T04:01:03;101237.69;;;19.06;48.03
39449;BME280;25151;45.566;9.382;2023-02-12T04:04:06;101232.09;;;19.06;48.13
39449;BME280;25151;45.566;9.382;2023-02-12T04:07:07;101232.88;;;19.07;48.06
39449;BME280;25151;45.566;9.382;2023-02-12T04:10:09;101240.06;;;19.04;48.15
39449;BME280;25151;45.566;9.382;2023-02-12T04:13:20;101247.28;;;19.05;48.07
39449;BME280;25151;45.566;9.382;2023-02-12T04:16:57;101237.28;;;19.04;48.06
39449;BME280;25151;45.566;9.382;2023-02-12T04:26:48;101235.31;;;19.01;48.19
39449;BME280;25151;45.566;9.382;2023-02-12T04:29:59;101240.13;;;19.01;48.15
39449;BME280;25151;45.566;9.382;2023-02-12T04:33:02;101246.50;;;19.01;48.13
39449;BME280;25151;45.566;9.382;2023-02-12T04:36:12;101244.88;;;19.00;48.08
39449;BME280;25151;45.566;9.382;2023-02-12T04:39:20;101241.28;;;19.00;48.10
39449;BME280;25151;45.566;9.382;2023-02-12T04:42:23;101246.09;;;18.99;48.18
39449;BME280;25151;45.566;9.382;2023-02-12T04:45:27;101242.91;;;18.97;48.11
39449;BME280;25151;45.566;9.382;2023-02-12T04:48:29;101249.31;;;18.98;48.14
39449;BME280;25151;45.566;9.382;2023-02-12T04:51:29;101242.91;;;18.97;48.02
39449;BME280;25151;45.566;9.382;2023-02-12T04:54:30;101243.31;;;18.96;48.18
39449;BME280;25151;45.566;9.382;2023-02-12T04:57:31;101256.09;;;18.97;48.00
39449;BME280;25151;45.566;9.382;2023-02-12T05:00:32;101241.31;;;18.96;48.40
39449;BME280;25151;45.566;9.382;2023-02-12T05:03:33;101235.34;;;18.94;48.24
39449;BME280;25151;45.566;9.382;2023-02-12T05:06:35;101231.75;;;18.94;48.12
39449;BME280;25151;45.566;9.382;2023-02-12T05:09:36;101244.50;;;18.95;47.87
39449;BME280;25151;45.566;9.382;2023-02-12T05:12:37;101244.09;;;18.92;48.15
39449;BME280;25151;45.566;9.382;2023-02-12T05:15:38;101232.13;;;18.92;48.15
39449;BME280;25151;45.566;9.382;2023-02-12T05:18:41;101232.13;;;18.92;48.24
39449;BME280;25151;45.566;9.382;2023-02-12T05:21:43;101237.34;;;18.90;48.14
39449;BME280;25151;45.566;9.382;2023-02-12T05:24:43;101232.97;;;18.89;48.19
39449;BME280;25151;45.566;9.382;2023-02-12T05:27:44;101235.34;;;18.90;48.16
39449;BME280;25151;45.566;9.382;2023-02-12T05:30:45;101230.16;;;18.89;48.23
39449;BME280;25151;45.566;9.382;2023-02-12T05:33:46;101220.97;;;18.88;48.25
39449;BME280;25151;45.566;9.382;2023-02-12T05:36:46;101218.16;;;18.88;48.21
39449;BME280;25151;45.566;9.382;2023-02-12T05:39:48;101218.56;;;18.87;48.23
39449;BME280;25151;45.566;9.382;2023-02-12T05:42:49;101212.19;;;18.86;48.29
39449;BME280;25151;45.566;9.382;2023-02-12T05:45:50;101217.00;;;18.86;48.18
39449;BME280;25151;45.566;9.382;2023-02-12T05:48:51;101216.19;;;18.85;48.10
39449;BME280;25151;45.566;9.382;2023-02-12T05:51:52;101209.81;;;18.85;48.07
39449;BME280;25151;45.566;9.382;2023-02-12T05:54:53;101209.00;;;18.84;48.23
39449;BME280;25151;45.566;9.382;2023-02-12T05:57:54;101213.78;;;18.84;48.16
39449;BME280;25151;45.566;9.382;2023-02-12T06:00:54;101219.78;;;18.82;48.29
39449;BME280;25151;45.566;9.382;2023-02-12T06:03:55;101235.34;;;18.83;48.24
39449;BME280;25151;45.566;9.382;2023-02-12T06:06:59;101234.56;;;18.83;48.32
39449;BME280;25151;45.566;9.382;2023-02-12T06:10:00;101230.97;;;18.82;48.01
39449;BME280;25151;45.566;9.382;2023-02-12T06:13:01;101234.56;;;18.83;48.17
39449;BME280;25151;45.566;9.382;2023-02-12T06:16:02;101240.16;;;18.83;48.18
39449;BME280;25151;45.566;9.382;2023-02-12T06:19:03;101237.78;;;18.81;48.18
39449;BME280;25151;45.566;9.382;2023-02-12T06:22:05;101239.38;;;18.79;48.20
39449;BME280;25151;45.566;9.382;2023-02-12T06:25:06;101235.34;;;18.80;48.33
39449;BME280;25151;45.566;9.382;2023-02-12T06:28:07;101232.56;;;18.80;48.18
39449;BME280;25151;45.566;9.382;2023-02-12T06:31:21;101228.19;;;18.82;47.96
39449;BME280;25151;45.566;9.382;2023-02-12T06:34:24;101231.34;;;18.84;48.11
39449;BME280;25151;45.566;9.382;2023-02-12T06:37:25;101237.75;;;18.85;48.08
39449;BME280;25151;45.566;9.382;2023-02-12T06:40:26;101240.53;;;18.88;48.07
39449;BME280;25151;45.566;9.382;2023-02-12T06:43:27;101252.91;;;18.91;47.93
39449;BME280;25151;45.566;9.382;2023-02-12T06:46:29;101252.47;;;18.96;47.80
39449;BME280;25151;45.566;9.382;2023-02-12T06:49:30;101261.28;;;18.98;47.63
39449;BME280;25151;45.566;9.382;2023-02-12T06:52:31;101256.47;;;19.02;47.60
39449;BME280;25151;45.566;9.382;2023-02-12T06:55:33;101267.66;;;19.06;47.65
39449;BME280;25151;45.566;9.382;2023-02-12T06:58:34;101281.19;;;19.11;47.39
39449;BME280;25151;45.566;9.382;2023-02-12T07:01:36;101289.59;;;19.14;47.36
39449;BME280;25151;45.566;9.382;2023-02-12T07:04:39;101287.56;;;19.19;47.17
39449;BME280;25151;45.566;9.382;2023-02-12T07:07:40;101301.53;;;19.26;47.00
39449;BME280;25151;45.566;9.382;2023-02-12T07:10:41;101299.09;;;19.31;47.01
39449;BME280;25151;45.566;9.382;2023-02-12T07:13:44;101300.31;;;19.37;46.98
39449;BME280;25151;45.566;9.382;2023-02-12T07:16:45;101305.47;;;19.42;46.84
39449;BME280;25151;45.566;9.382;2023-02-12T07:19:47;101303.06;;;19.48;46.79
39449;BME280;25151;45.566;9.382;2023-02-12T07:22:48;101305.81;;;19.55;46.80
39449;BME280;25151;45.566;9.382;2023-02-12T07:26:00;101299.81;;;19.60;46.76
39449;BME280;25151;45.566;9.382;2023-02-12T07:29:01;101301.41;;;19.65;46.64
39449;BME280;25151;45.566;9.382;2023-02-12T07:32:02;101302.19;;;19.69;46.49
39449;BME280;25151;45.566;9.382;2023-02-12T07:35:03;101289.38;;;19.72;46.43
39449;BME280;25151;45.566;9.382;2023-02-12T07:38:04;101284.16;;;19.74;46.29
39449;BME280;25151;45.566;9.382;2023-02-12T07:41:14;101288.56;;;19.75;46.31
39449;BME280;25151;45.566;9.382;2023-02-12T07:44:15;101290.13;;;19.76;46.17
39449;BME280;25151;45.566;9.382;2023-02-12T07:47:16;101302.16;;;19.76;46.00
39449;BME280;25151;45.566;9.382;2023-02-12T07:50:18;101302.53;;;19.78;46.00
39449;BME280;25151;45.566;9.382;2023-02-12T07:53:18;101307.75;;;19.80;45.92
39449;BME280;25151;45.566;9.382;2023-02-12T07:56:23;101316.50;;;19.82;46.02
39449;BME280;25151;45.566;9.382;2023-02-12T07:59:26;101309.69;;;19.83;46.33
39449;BME280;25151;45.566;9.382;2023-02-12T08:02:29;101306.91;;;19.83;46.01
39449;BME280;25151;45.566;9.382;2023-02-12T08:05:31;101306.88;;;19.90;45.87
39449;BME280;25151;45.566;9.382;2023-02-12T08:08:32;101319.25;;;19.93;45.58
39449;BME280;25151;45.566;9.382;2023-02-12T08:11:36;101318.84;;;19.94;45.95
39449;BME280;25151;45.566;9.382;2023-02-12T08:14:39;101321.63;;;19.98;45.89
39449;BME280;25151;45.566;9.382;2023-02-12T08:17:41;101326.00;;;20.02;46.00
39449;BME280;25151;45.566;9.382;2023-02-12T08:21:10;101320.38;;;20.02;46.02
39449;BME280;25151;45.566;9.382;2023-02-12T08:24:11;101330.78;;;20.05;46.01
39449;BME280;25151;45.566;9.382;2023-02-12T08:27:14;101327.56;;;20.03;45.91
39449;BME280;25151;45.566;9.382;2023-02-12T08:30:19;101343.56;;;20.06;46.09
39449;BME280;25151;45.566;9.382;2023-02-12T08:33:30;101338.38;;;20.08;46.24
39449;BME280;25151;45.566;9.382;2023-02-12T08:36:37;101340.72;;;20.13;46.09
39449;BME280;25151;45.566;9.382;2023-02-12T08:39:41;101347.50;;;20.20;46.24
39449;BME280;25151;45.566;9.382;2023-02-12T08:42:44;101337.06;;;20.24;46.07
39449;BME280;25151;45.566;9.382;2023-02-12T08:45:49;101341.84;;;20.27;46.23
39449;BME280;25151;45.566;9.382;2023-02-12T08:48:59;101341.00;;;20.30;46.10
39449;BME280;25151;45.566;9.382;2023-02-12T08:52:10;101354.22;;;20.33;46.27
39449;BME280;25151;45.566;9.382;2023-02-12T08:55:24;101351.41;;;20.33;46.31
39449;BME280;25151;45.566;9.382;2023-02-12T08:58:32;101351.41;;;20.33;46.25
39449;BME280;25151;45.566;9.382;2023-02-12T09:01:41;101364.19;;;20.34;46.42
39449;BME280;25151;45.566;9.382;2023-02-12T09:05:33;101365.00;;;20.34;46.31
39449;BME280;25151;45.566;9.382;2023-02-12T09:08:34;101363.38;;;20.41;46.46
39449;BME280;25151;45.566;9.382;2023-02-12T09:11:46;101362.56;;;20.40;46.42
39449;BME280;25151;45.566;9.382;2023-02-12T09:14:51;101361.75;;;20.43;46.61
39449;BME280;25151;45.566;9.382;2023-02-12T09:17:54;101357.72;;;20.44;46.24
39449;BME280;25151;45.566;9.382;2023-02-12T09:21:11;101363.72;;;20.46;46.48
39449;BME280;25151;45.566;9.382;2023-02-12T09:24:14;101366.91;;;20.48;46.31
39449;BME280;25151;45.566;9.382;2023-02-12T09:27:19;101364.94;;;20.49;46.59
39449;BME280;25151;45.566;9.382;2023-02-12T09:30:24;101374.53;;;20.51;46.52
39449;BME280;25151;45.566;9.382;2023-02-12T09:33:27;101368.94;;;20.51;46.53
39449;BME280;25151;45.566;9.382;2023-02-12T09:36:33;101377.69;;;20.53;46.82
39449;BME280;25151;45.566;9.382;2023-02-12T09:39:36;101380.47;;;20.57;46.83
39449;BME280;25151;45.566;9.382;2023-02-12T09:43:02;101384.09;;;20.57;46.69
39449;BME280;25151;45.566;9.382;2023-02-12T09:46:27;101374.47;;;20.55;46.76
39449;BME280;25151;45.566;9.382;2023-02-12T09:57:39;101390.41;;;20.69;46.69
39449;BME280;25151;45.566;9.382;2023-02-12T10:05:32;101393.56;;;20.74;46.85
39449;BME280;25151;45.566;9.382;2023-02-12T10:16:00;101385.50;;;20.83;46.86
39449;BME280;25151;45.566;9.382;2023-02-12T10:19:38;101390.66;;;20.85;47.13
39449;BME280;25151;45.566;9.382;2023-02-12T10:27:34;101387.00;;;20.92;47.39
39449;BME280;25151;45.566;9.382;2023-02-12T10:30:52;101378.19;;;20.93;47.31
39449;BME280;25151;45.566;9.382;2023-02-12T10:33:59;101389.00;;;20.95;47.51
39449;BME280;25151;45.566;9.382;2023-02-12T10:41:18;101384.19;;;20.95;47.27
39449;BME280;25151;45.566;9.382;2023-02-12T10:48:28;101396.97;;;21.00;47.42
39449;BME280;25151;45.566;9.382;2023-02-12T10:52:01;101384.97;;;20.96;47.32
39449;BME280;25151;45.566;9.382;2023-02-12T10:55:24;101382.16;;;20.96;47.41
39449;BME280;25151;45.566;9.382;2023-02-12T10:58:27;101385.38;;;20.94;47.33
39449;BME280;25151;45.566;9.382;2023-02-12T11:01:36;101379.75;;;20.94;47.65
39449;BME280;25151;45.566;9.382;2023-02-12T11:04:40;101374.16;;;20.94;47.73
39449;BME280;25151;45.566;9.382;2023-02-12T11:07:48;101366.16;;;20.93;47.75
39449;BME280;25151;45.566;9.382;2023-02-12T11:19:17;101359.78;;;20.92;47.71
39449;BME280;25151;45.566;9.382;2023-02-12T11:22:20;101358.19;;;20.91;47.73
39449;BME280;25151;45.566;9.382;2023-02-12T11:25:28;101355.75;;;20.93;47.43
39449;BME280;25151;45.566;9.382;2023-02-12T11:28:34;101349.34;;;20.93;47.72
39449;BME280;25151;45.566;9.382;2023-02-12T11:32:04;101349.34;;;20.93;47.50
39449;BME280;25151;45.566;9.382;2023-02-12T11:35:22;101346.97;;;20.91;47.85
39449;BME280;25151;45.566;9.382;2023-02-12T11:38:46;101349.78;;;20.91;47.63
39449;BME280;25151;45.566;9.382;2023-02-12T11:41:55;101335.75;;;20.91;47.61
39449;BME280;25151;45.566;9.382;2023-02-12T11:45:03;101338.94;;;20.90;47.46
39449;BME280;25151;45.566;9.382;2023-02-12T11:48:35;101327.34;;;20.91;47.65
39449;BME280;25151;45.566;9.382;2023-02-12T11:51:37;101326.94;;;20.89;47.63
39449;BME280;25151;45.566;9.382;2023-02-12T11:54:41;101320.50;;;20.92;47.42
39449;BME280;25151;45.566;9.382;2023-02-12T11:57:49;101322.09;;;20.93;47.46
39449;BME280;25151;45.566;9.382;2023-02-12T12:01:03;101311.69;;;20.94;47.48
39449;BME280;25151;45.566;9.382;2023-02-12T12:04:14;101318.06;;;20.94;47.44
39449;BME280;25151;45.566;9.382;2023-02-12T12:07:24;101310.88;;;20.93;47.30
39449;BME280;25151;45.566;9.382;2023-02-12T12:14:53;101316.53;;;20.90;47.76
39449;BME280;25151;45.566;9.382;2023-02-12T12:18:25;101310.13;;;20.89;47.55
39449;BME280;25151;45.566;9.382;2023-02-12T12:25:45;101302.94;;;20.88;47.71
39449;BME280;25151;45.566;9.382;2023-02-12T12:32:20;101298.13;;;20.88;47.67
39449;BME280;25151;45.566;9.382;2023-02-12T12:35:44;101281.31;;;20.85;47.67
39449;BME280;25151;45.566;9.382;2023-02-12T12:42:23;101277.31;;;20.86;47.50
39449;BME280;25151;45.566;9.382;2023-02-12T12:48:57;101272.56;;;20.83;47.52
39449;BME280;25151;45.566;9.382;2023-02-12T12:55:43;101274.97;;;20.81;47.67
39449;BME280;25151;45.566;9.382;2023-02-12T12:59:07;101273.38;;;20.80;47.97
39449;BME280;25151;45.566;9.382;2023-02-12T13:08:42;101272.19;;;20.77;47.84
39449;BME280;25151;45.566;9.382;2023-02-12T13:19:06;101258.22;;;20.74;47.93
39449;BME280;25151;45.566;9.382;2023-02-12T13:22:15;101260.22;;;20.73;47.91
39449;BME280;25151;45.566;9.382;2023-02-12T13:25:26;101262.22;;;20.73;47.70
39449;BME280;25151;45.566;9.382;2023-02-12T13:28:36;101262.66;;;20.71;47.52
39449;BME280;25151;45.566;9.382;2023-02-12T13:31:47;101266.66;;;20.70;47.90
39449;BME280;25151;45.566;9.382;2023-02-12T13:34:50;101267.06;;;20.69;47.58
39449;BME280;25151;45.566;9.382;2023-02-12T13:37:54;101266.28;;;20.68;47.53
39449;BME280;25151;45.566;9.382;2023-02-12T13:41:03;101258.28;;;20.67;47.68
39449;BME280;25151;45.566;9.382;2023-02-12T13:44:22;101275.09;;;20.67;47.60
39449;BME280;25151;45.566;9.382;2023-02-12T13:54:40;101284.75;;;20.62;47.89
39449;BME280;25151;45.566;9.382;2023-02-12T13:57:43;101285.97;;;20.61;47.84
39449;BME280;25151;45.566;9.382;2023-02-12T14:03:50;101291.19;;;20.59;47.87
39449;BME280;25151;45.566;9.382;2023-02-12T14:10:06;101300.44;;;20.56;47.78
39449;BME280;25151;45.566;9.382;2023-02-12T14:13:20;101310.44;;;20.53;47.71
39449;BME280;25151;45.566;9.382;2023-02-12T14:29:03;101311.25;;;20.50;47.69
39449;BME280;25151;45.566;9.382;2023-02-12T14:35:46;101317.28;;;20.49;47.87
39449;BME280;25151;45.566;9.382;2023-02-12T14:39:02;101327.28;;;20.50;47.89
39449;BME280;25151;45.566;9.382;2023-02-12T14:45:33;101329.69;;;20.51;47.96
39449;BME280;25151;45.566;9.382;2023-02-12T14:48:49;101337.69;;;20.53;47.82
39449;BME280;25151;45.566;9.382;2023-02-12T14:55:04;101346.09;;;20.53;48.07
39449;BME280;25151;45.566;9.382;2023-02-12T14:58:18;101345.28;;;20.52;48.04
39449;BME280;25151;45.566;9.382;2023-02-12T15:01:28;101346.50;;;20.51;48.31
39449;BME280;25151;45.566;9.382;2023-02-12T15:04:35;101355.72;;;20.52;48.42
39449;BME280;25151;45.566;9.382;2023-02-12T15:07:47;101357.72;;;20.51;48.43
39449;BME280;25151;45.566;9.382;2023-02-12T15:14:27;101362.09;;;20.52;48.55
39449;BME280;25151;45.566;9.382;2023-02-12T15:17:34;101358.91;;;20.50;48.77
39449;BME280;25151;45.566;9.382;2023-02-12T15:20:53;101357.72;;;20.48;48.83
39449;BME280;25151;45.566;9.382;2023-02-12T15:24:02;101362.91;;;20.49;48.70
39449;BME280;25151;45.566;9.382;2023-02-12T15:27:04;101365.72;;;20.49;48.81
39449;BME280;25151;45.566;9.382;2023-02-12T15:30:06;101373.72;;;20.47;49.00
39449;BME280;25151;45.566;9.382;2023-02-12T15:33:33;101386.53;;;20.48;48.87
39449;BME280;25151;45.566;9.382;2023-02-12T15:36:34;101388.94;;;20.46;49.02
39449;BME280;25151;45.566;9.382;2023-02-12T15:39:43;101388.94;;;20.46;49.15
39449;BME280;25151;45.566;9.382;2023-02-12T15:42:57;101393.75;;;20.46;49.15
39449;BME280;25151;45.566;9.382;2023-02-12T15:45:59;101395.31;;;20.47;49.19
39449;BME280;25151;45.566;9.382;2023-02-12T15:49:17;101390.56;;;20.44;48.96
39449;BME280;25151;45.566;9.382;2023-02-12T15:52:25;101398.19;;;20.43;49.27
39449;BME280;25151;45.566;9.382;2023-02-12T15:55:36;101384.56;;;20.42;49.14
39449;BME280;25151;45.566;9.382;2023-02-12T15:58:45;101386.56;;;20.41;49.21
39449;BME280;25151;45.566;9.382;2023-02-12T16:01:54;101387.38;;;20.38;49.18
39449;BME280;25151;45.566;9.382;2023-02-12T16:04:57;101391.78;;;20.39;49.38
39449;BME280;25151;45.566;9.382;2023-02-12T16:07:59;101397.78;;;20.37;49.45
39449;BME280;25151;45.566;9.382;2023-02-12T16:11:01;101395.00;;;20.37;49.42
39449;BME280;25151;45.566;9.382;2023-02-12T16:14:21;101402.59;;;20.37;49.35
39449;BME280;25151;45.566;9.382;2023-02-12T16:17:29;101412.22;;;20.36;49.43
39449;BME280;25151;45.566;9.382;2023-02-12T16:20:34;101411.44;;;20.35;49.33
39449;BME280;25151;45.566;9.382;2023-02-12T16:23:35;101414.63;;;20.34;49.42
39449;BME280;25151;45.566;9.382;2023-02-12T16:26:36;101413.03;;;20.33;49.50
39449;BME280;25151;45.566;9.382;2023-02-12T16:29:42;101425.03;;;20.33;49.51
39449;BME280;25151;45.566;9.382;2023-02-12T16:32:44;101428.25;;;20.32;49.90
39449;BME280;25151;45.566;9.382;2023-02-12T16:36:00;101426.63;;;20.31;49.66
39449;BME280;25151;45.566;9.382;2023-02-12T16:39:05;101436.66;;;20.32;49.67
39449;BME280;25151;45.566;9.382;2023-02-12T16:42:14;101440.66;;;20.31;49.92
39449;BME280;25151;45.566;9.382;2023-02-12T16:48:39;101450.25;;;20.30;50.04
39449;BME280;25151;45.566;9.382;2023-02-12T16:51:41;101460.69;;;20.29;50.00
39449;BME280;25151;45.566;9.382;2023-02-12T16:54:42;101463.09;;;20.27;49.65
39449;BME280;25151;45.566;9.382;2023-02-12T16:57:44;101477.91;;;20.28;49.93
39449;BME280;25151;45.566;9.382;2023-02-12T17:00:48;101472.31;;;20.28;49.95
39449;BME280;25151;45.566;9.382;2023-02-12T17:03:50;101479.09;;;20.27;49.88
39449;BME280;25151;45.566;9.382;2023-02-12T17:06:51;101492.28;;;20.26;49.98
39449;BME280;25151;45.566;9.382;2023-02-12T17:09:52;101484.31;;;20.25;50.01
39449;BME280;25151;45.566;9.382;2023-02-12T17:12:54;101491.13;;;20.24;50.25
39449;BME280;25151;45.566;9.382;2023-02-12T17:15:57;101485.53;;;20.24;49.95
39449;BME280;25151;45.566;9.382;2023-02-12T17:18:59;101504.72;;;20.22;50.07
39449;BME280;25151;45.566;9.382;2023-02-12T17:22:01;101505.94;;;20.21;50.25
39449;BME280;25151;45.566;9.382;2023-02-12T17:25:04;101509.94;;;20.20;50.04
39449;BME280;25151;45.566;9.382;2023-02-12T17:28:08;101508.34;;;20.19;50.17
39449;BME280;25151;45.566;9.382;2023-02-12T17:31:10;101505.53;;;20.19;50.26
39449;BME280;25151;45.566;9.382;2023-02-12T17:34:11;101513.94;;;20.19;50.26
39449;BME280;25151;45.566;9.382;2023-02-12T17:37:13;101511.56;;;20.17;50.08
39449;BME280;25151;45.566;9.382;2023-02-12T17:40:14;101523.16;;;20.16;50.14
39449;BME280;25151;45.566;9.382;2023-02-12T17:43:15;101525.16;;;20.15;49.78
39449;BME280;25151;45.566;9.382;2023-02-12T17:46:23;101522.75;;;20.13;50.09
39449;BME280;25151;45.566;9.382;2023-02-12T17:49:25;101529.56;;;20.12;49.96
39449;BME280;25151;45.566;9.382;2023-02-12T17:52:26;101530.78;;;20.11;50.04
39449;BME280;25151;45.566;9.382;2023-02-12T17:55:27;101536.78;;;20.10;50.11
39449;BME280;25151;45.566;9.382;2023-02-12T17:58:28;101544.38;;;20.09;50.09
39449;BME280;25151;45.566;9.382;2023-02-12T18:01:30;101545.59;;;20.08;49.86
39449;BME280;25151;45.566;9.382;2023-02-12T18:05:12;101549.56;;;20.07;49.94
39449;BME280;25151;45.566;9.382;2023-02-12T18:08:15;101558.81;;;20.04;49.92
39449;BME280;25151;45.566;9.382;2023-02-12T18:11:17;101572.00;;;20.04;49.80
39449;BME280;25151;45.566;9.382;2023-02-12T18:14:19;101565.22;;;20.01;49.67
39449;BME280;25151;45.566;9.382;2023-02-12T18:17:20;101563.63;;;20.00;49.61
39449;BME280;25151;45.566;9.382;2023-02-12T18:20:21;101567.59;;;19.99;49.54
39449;BME280;25151;45.566;9.382;2023-02-12T18:23:22;101570.81;;;19.98;49.77
39449;BME280;25151;45.566;9.382;2023-02-12T18:26:23;101580.41;;;19.97;49.49
39449;BME280;25151;45.566;9.382;2023-02-12T18:29:24;101568.44;;;19.96;49.70
39449;BME280;25151;45.566;9.382;2023-02-12T18:32:25;101573.63;;;19.94;49.58
39449;BME280;25151;45.566;9.382;2023-02-12T18:35:30;101568.44;;;19.93;49.69
39449;BME280;25151;45.566;9.382;2023-02-12T18:38:33;101578.84;;;19.92;49.50
39449;BME280;25151;45.566;9.382;2023-02-12T18:41:35;101579.63;;;19.89;49.71